Time;durP1;ratioP1;P1;durP2;ratioP2;P2;SDS_P1;SDS_P2;PMS_P1;PMS_P2;Temp;Humidity;BMP_temperature;BMP_pressure;BME280_temperature;BME280_humidity;BME280_pressure;Samples;Min_cycle;Max_cycle;Signal;HPM_P1;HPM_P2
2023/01/30 00:01:55;;;;;;;23.63;17.57;;;7.00;99.90;;;;;;5045414;28;20311;-31
2023/01/30 00:04:24;;;;;;;26.10;18.90;;;7.00;99.90;;;;;;5041015;28;20236;-31
2023/01/30 00:06:51;;;;;;;24.90;18.20;;;7.00;99.90;;;;;;5041945;28;20627;-31
2023/01/30 00:09:21;;;;;;;26.33;19.30;;;7.00;99.90;;;;;;5044491;28;20282;-31
2023/01/30 00:11:50;;;;;;;26.37;19.33;;;7.10;99.90;;;;;;5047696;28;20206;-31
2023/01/30 00:14:22;;;;;;;26.03;18.63;;;7.10;99.90;;;;;;5064726;28;20312;-31
2023/01/30 00:16:49;;;;;;;24.37;18.33;;;7.20;99.90;;;;;;5050878;28;20204;-30
2023/01/30 00:19:16;;;;;;;25.80;18.40;;;7.20;99.90;;;;;;5044415;28;20291;-31
2023/01/30 00:21:45;;;;;;;25.67;17.87;;;7.20;99.90;;;;;;5026380;28;20252;-31
2023/01/30 00:24:12;;;;;;;23.57;17.07;;;7.20;99.90;;;;;;5045294;28;20204;-31
2023/01/30 00:26:42;;;;;;;25.07;17.47;;;7.20;99.90;;;;;;5043723;28;20200;-31
2023/01/30 00:29:12;;;;;;;25.77;18.10;;;7.30;99.90;;;;;;5043796;28;20227;-31
2023/01/30 00:31:41;;;;;;;25.40;18.30;;;7.30;99.90;;;;;;5044961;28;20671;-31
2023/01/30 00:34:08;;;;;;;27.03;17.73;;;7.30;99.90;;;;;;5043612;28;20246;-31
2023/01/30 00:36:38;;;;;;;25.03;17.30;;;7.30;99.90;;;;;;5042324;28;20623;-31
2023/01/30 00:39:12;;;;;;;26.43;17.87;;;7.40;99.90;;;;;;5058931;28;20231;-31
2023/01/30 00:47:30;;;;;;;23.57;16.13;;;7.50;99.90;;;;;;5026064;28;20196;-31
2023/01/30 00:49:59;;;;;;;26.27;17.67;;;7.60;99.90;;;;;;5023840;28;20247;-31
2023/01/30 00:52:29;;;;;;;26.53;17.23;;;7.60;99.90;;;;;;5024506;28;20299;-31
2023/01/30 00:54:56;;;;;;;22.70;16.53;;;7.70;99.90;;;;;;5030619;28;20266;-30
2023/01/30 00:57:25;;;;;;;22.63;16.40;;;7.70;99.90;;;;;;5045067;28;20220;-31
2023/01/30 00:59:53;;;;;;;23.07;16.37;;;7.70;99.90;;;;;;5027907;28;20217;-31
2023/01/30 01:02:23;;;;;;;22.30;15.70;;;7.80;99.90;;;;;;5023075;28;20221;-31
2023/01/30 01:04:54;;;;;;;23.67;16.03;;;7.80;99.90;;;;;;5024896;28;20696;-31
2023/01/30 01:07:21;;;;;;;20.87;15.10;;;7.80;99.90;;;;;;5047442;28;20208;-31
2023/01/30 01:09:49;;;;;;;22.87;15.93;;;7.90;99.90;;;;;;5043967;28;20200;-31
2023/01/30 01:12:18;;;;;;;23.77;15.97;;;7.90;99.90;;;;;;5044900;28;20211;-31
2023/01/30 01:14:48;;;;;;;22.40;15.53;;;7.90;99.90;;;;;;5044920;28;20290;-31
2023/01/30 01:17:17;;;;;;;23.10;15.77;;;8.00;99.90;;;;;;5042995;28;20628;-31
2023/01/30 01:19:49;;;;;;;23.57;16.03;;;8.00;99.90;;;;;;5042637;28;20208;-31
2023/01/30 01:22:21;;;;;;;22.70;14.83;;;8.00;99.90;;;;;;5043800;28;20270;-31
2023/01/30 01:24:50;;;;;;;22.57;15.07;;;8.10;99.90;;;;;;5044387;28;20228;-31
2023/01/30 01:27:20;;;;;;;21.20;15.23;;;8.00;99.90;;;;;;5046897;28;20204;-31
2023/01/30 01:29:47;;;;;;;22.67;15.07;;;8.10;99.90;;;;;;5047101;28;20593;-31
2023/01/30 01:32:14;;;;;;;22.27;15.30;;;8.10;99.90;;;;;;5046922;28;20690;-31
2023/01/30 01:34:41;;;;;;;24.63;14.50;;;8.10;99.90;;;;;;5048324;28;20274;-31
2023/01/30 01:37:11;;;;;;;20.20;14.47;;;8.10;99.90;;;;;;5047862;28;20674;-31
2023/01/30 01:42:28;;;;;;;19.00;13.70;;;8.10;99.90;;;;;;5048248;28;20294;-30
2023/01/30 01:45:21;;;;;;;18.27;13.47;;;8.20;99.90;;;;;;5047253;28;20286;-31
2023/01/30 01:47:57;;;;;;;19.63;13.87;;;8.20;99.90;;;;;;5048405;28;20541;-31
2023/01/30 01:50:38;;;;;;;19.27;13.30;;;8.20;99.90;;;;;;5045568;28;20206;-31
2023/01/30 01:53:09;;;;;;;19.33;13.40;;;8.20;99.90;;;;;;5040130;28;20244;-30
2023/01/30 01:55:40;;;;;;;19.90;13.73;;;8.20;99.90;;;;;;5040704;28;20624;-31
2023/01/30 01:58:18;;;;;;;18.57;13.47;;;8.20;99.90;;;;;;5042808;28;20237;-31
2023/01/30 02:00:50;;;;;;;18.67;13.37;;;8.30;99.90;;;;;;5033022;28;20209;-31
2023/01/30 02:03:30;;;;;;;20.23;14.40;;;8.30;99.90;;;;;;5029832;28;20220;-31
2023/01/30 02:06:01;;;;;;;18.87;14.27;;;8.30;99.90;;;;;;5040897;28;20639;-30
2023/01/30 02:08:38;;;;;;;16.77;12.97;;;8.30;99.90;;;;;;5031811;28;20663;-31
2023/01/30 02:11:18;;;;;;;19.53;13.30;;;8.40;99.90;;;;;;5040854;28;20286;-31
2023/01/30 02:13:46;;;;;;;18.00;13.70;;;8.40;99.90;;;;;;5026929;28;20266;-31
2023/01/30 02:16:14;;;;;;;18.30;13.47;;;8.40;99.90;;;;;;5027012;28;20747;-31
2023/01/30 02:18:43;;;;;;;19.50;12.40;;;8.40;99.90;;;;;;5039203;28;20197;-31
2023/01/30 02:21:35;;;;;;;20.60;13.33;;;8.40;99.90;;;;;;5027764;28;20217;-31
2023/01/30 02:24:11;;;;;;;19.17;13.23;;;8.40;99.90;;;;;;5030733;28;20221;-31
2023/01/30 02:26:58;;;;;;;19.37;13.47;;;8.40;99.90;;;;;;5025443;28;20205;-31
2023/01/30 02:29:34;;;;;;;18.27;12.70;;;8.40;99.90;;;;;;5047358;28;20231;-31
2023/01/30 02:32:08;;;;;;;18.47;13.60;;;8.40;99.90;;;;;;5046109;28;20551;-31
2023/01/30 02:34:58;;;;;;;19.37;13.73;;;8.40;99.90;;;;;;5045126;28;20196;-31
2023/01/30 02:38:03;;;;;;;19.83;13.83;;;8.40;99.90;;;;;;5041654;28;20690;-31
2023/01/30 02:40:59;;;;;;;20.97;14.10;;;8.40;99.90;;;;;;5044350;28;20254;-31
2023/01/30 02:43:36;;;;;;;20.33;12.60;;;8.40;99.90;;;;;;5045766;28;20219;-31
2023/01/30 02:46:23;;;;;;;16.70;12.70;;;8.50;99.90;;;;;;5046905;28;20575;-30
2023/01/30 02:49:06;;;;;;;18.00;12.43;;;8.50;99.90;;;;;;5046849;28;20236;-31
2023/01/30 02:51:39;;;;;;;18.93;12.37;;;8.50;99.90;;;;;;5045989;28;20240;-31
2023/01/30 02:54:10;;;;;;;17.03;11.83;;;8.50;99.90;;;;;;5047934;28;20206;-31
2023/01/30 02:56:53;;;;;;;18.33;12.10;;;8.50;99.90;;;;;;5065273;28;20215;-31
2023/01/30 02:59:27;;;;;;;19.33;12.83;;;8.50;99.90;;;;;;5065612;28;20930;-31
2023/01/30 03:02:29;;;;;;;15.47;11.90;;;8.60;99.90;;;;;;5065302;28;20207;-31
2023/01/30 03:05:16;;;;;;;18.77;12.10;;;8.60;99.90;;;;;;5059171;28;20813;-31
2023/01/30 03:08:18;;;;;;;20.33;11.33;;;8.60;99.90;;;;;;5046270;28;20228;-31
2023/01/30 03:10:56;;;;;;;17.73;11.57;;;8.60;99.90;;;;;;5046856;28;20204;-31
2023/01/30 03:13:48;;;;;;;16.43;11.33;;;8.60;99.90;;;;;;5046195;28;20207;-31
2023/01/30 03:16:23;;;;;;;20.77;12.70;;;8.60;99.90;;;;;;5040382;28;20204;-30
2023/01/30 03:18:51;;;;;;;18.50;12.13;;;8.60;99.90;;;;;;5046002;28;20298;-31
2023/01/30 03:21:18;;;;;;;22.47;13.30;;;8.70;99.90;;;;;;5046166;28;20258;-30
2023/01/30 03:23:48;;;;;;;20.83;12.33;;;8.70;99.90;;;;;;5044941;28;20231;-31
2023/01/30 03:26:23;;;;;;;23.17;14.03;;;8.70;99.90;;;;;;5046726;28;20204;-31
2023/01/30 03:28:56;;;;;;;17.03;11.63;;;8.70;99.90;;;;;;5047446;28;20203;-31
2023/01/30 03:31:23;;;;;;;17.03;10.53;;;8.70;99.90;;;;;;5043395;28;20204;-30
2023/01/30 03:33:50;;;;;;;20.17;11.67;;;8.70;99.90;;;;;;5046868;28;20255;-31
2023/01/30 03:36:20;;;;;;;18.63;11.73;;;8.70;99.90;;;;;;5045103;28;20196;-30
2023/01/30 03:38:53;;;;;;;19.13;11.40;;;8.70;99.90;;;;;;5046573;28;20507;-30
2023/01/30 03:41:20;;;;;;;15.13;10.57;;;8.70;99.90;;;;;;5046107;28;20216;-31
2023/01/30 03:43:50;;;;;;;19.73;11.13;;;8.70;99.90;;;;;;5043582;28;20232;-30
2023/01/30 03:46:17;;;;;;;18.57;10.57;;;8.70;99.90;;;;;;5044583;28;20212;-30
2023/01/30 03:48:46;;;;;;;16.13;10.40;;;8.70;99.90;;;;;;5045076;28;20845;-31
2023/01/30 03:51:16;;;;;;;16.80;10.60;;;8.80;99.90;;;;;;5043857;28;20746;-31
2023/01/30 03:53:45;;;;;;;13.90;10.27;;;8.80;99.90;;;;;;5045063;28;20208;-31
2023/01/30 03:56:19;;;;;;;17.77;10.40;;;8.80;99.90;;;;;;5044269;28;20291;-31
2023/01/30 03:58:49;;;;;;;15.30;9.30;;;8.90;99.90;;;;;;5046583;28;20239;-31
2023/01/30 04:01:19;;;;;;;18.80;10.27;;;8.90;99.90;;;;;;5044205;28;20750;-30
2023/01/30 04:03:46;;;;;;;16.33;10.53;;;8.90;99.90;;;;;;5044003;28;20569;-30
2023/01/30 04:06:18;;;;;;;16.60;9.43;;;8.90;99.90;;;;;;5044933;28;20258;-30
2023/01/30 04:08:45;;;;;;;18.00;10.00;;;8.90;99.90;;;;;;5042704;28;20771;-31
2023/01/30 04:11:15;;;;;;;17.77;10.20;;;9.00;99.90;;;;;;5027511;28;20303;-31
2023/01/30 04:13:47;;;;;;;14.13;9.37;;;9.00;99.90;;;;;;5025755;28;20204;-31
2023/01/30 04:16:23;;;;;;;16.47;10.30;;;8.90;99.90;;;;;;5025572;28;20227;-30
2023/01/30 04:18:51;;;;;;;14.53;10.00;;;8.90;99.90;;;;;;5024121;28;20611;-31
2023/01/30 04:21:23;;;;;;;14.10;10.37;;;8.90;99.90;;;;;;5036924;28;20226;-30
2023/01/30 04:23:52;;;;;;;16.90;10.20;;;8.90;99.90;;;;;;5043809;28;20269;-31
2023/01/30 04:26:24;;;;;;;14.63;9.83;;;8.90;99.90;;;;;;5045247;28;20192;-31
2023/01/30 04:28:51;;;;;;;14.27;9.97;;;8.90;99.90;;;;;;5043544;28;20196;-31
2023/01/30 04:31:20;;;;;;;16.53;10.23;;;9.00;99.90;;;;;;5045160;28;20200;-30
2023/01/30 04:33:48;;;;;;;15.40;9.93;;;9.00;99.90;;;;;;5042475;28;20304;-31
2023/01/30 04:36:22;;;;;;;15.33;9.73;;;9.00;99.90;;;;;;5042029;28;20560;-31
2023/01/30 04:38:52;;;;;;;14.87;9.00;;;8.90;99.90;;;;;;5045290;28;20218;-31
2023/01/30 04:41:22;;;;;;;14.13;9.20;;;8.90;99.90;;;;;;5044785;28;20219;-32
2023/01/30 04:43:51;;;;;;;13.37;9.50;;;8.90;99.90;;;;;;5045009;28;20261;-31
2023/01/30 04:46:21;;;;;;;17.33;9.20;;;8.90;99.90;;;;;;5043457;28;20208;-32
2023/01/30 04:48:50;;;;;;;12.53;8.77;;;9.00;99.90;;;;;;5043760;28;20296;-32
2023/01/30 04:51:19;;;;;;;13.07;8.73;;;9.00;99.90;;;;;;5043685;28;20200;-31
2023/01/30 04:53:47;;;;;;;9.50;7.73;;;9.00;99.90;;;;;;5044889;28;20526;-31
2023/01/30 04:56:14;;;;;;;15.53;8.53;;;9.00;99.90;;;;;;5044631;28;20777;-31
2023/01/30 04:58:44;;;;;;;11.87;7.33;;;9.00;99.90;;;;;;5043491;28;20295;-31
2023/01/30 05:01:31;;;;;;;10.37;7.20;;;9.00;99.90;;;;;;5044233;28;20204;-31
2023/01/30 05:04:01;;;;;;;8.37;6.97;;;9.00;99.90;;;;;;5040210;28;20221;-31
2023/01/30 05:06:34;;;;;;;9.57;7.50;;;8.90;99.90;;;;;;5043947;28;20219;-31
2023/01/30 05:09:01;;;;;;;8.13;6.47;;;9.00;99.90;;;;;;5044839;28;20579;-32
2023/01/30 05:11:31;;;;;;;9.37;7.03;;;9.00;99.90;;;;;;5042060;28;20232;-32
2023/01/30 05:14:03;;;;;;;11.73;6.77;;;9.00;99.90;;;;;;5043188;28;20593;-31
2023/01/30 05:16:32;;;;;;;7.67;6.23;;;9.10;99.90;;;;;;5042810;28;20231;-31
2023/01/30 05:19:00;;;;;;;8.30;6.60;;;9.10;99.90;;;;;;5042784;28;20276;-31
2023/01/30 05:21:27;;;;;;;10.73;6.83;;;9.10;99.90;;;;;;5025785;28;20249;-32
2023/01/30 05:23:57;;;;;;;9.60;6.33;;;9.10;99.90;;;;;;5040890;28;20255;-32
2023/01/30 05:26:24;;;;;;;10.50;6.10;;;9.10;99.90;;;;;;5042926;28;20200;-32
2023/01/30 05:28:56;;;;;;;9.47;7.23;;;9.10;99.90;;;;;;5044499;28;20215;-32
2023/01/30 05:31:26;;;;;;;10.10;6.70;;;9.10;99.90;;;;;;5044074;28;20208;-31
2023/01/30 05:33:53;;;;;;;8.67;6.40;;;9.10;99.90;;;;;;5042937;28;20204;-31
2023/01/30 05:36:22;;;;;;;8.70;6.00;;;9.20;99.90;;;;;;5042839;28;20219;-32
2023/01/30 05:38:49;;;;;;;9.50;5.70;;;9.20;99.90;;;;;;5043128;28;20208;-31
2023/01/30 05:41:19;;;;;;;8.33;6.00;;;9.20;99.90;;;;;;5044246;28;20478;-31
2023/01/30 05:43:49;;;;;;;10.17;5.60;;;9.20;99.90;;;;;;5042293;28;20255;-31
2023/01/30 05:46:23;;;;;;;10.77;6.47;;;9.20;99.90;;;;;;5042846;28;20501;-31
2023/01/30 05:48:55;;;;;;;9.37;6.50;;;9.20;99.90;;;;;;5043323;28;20303;-32
2023/01/30 05:51:26;;;;;;;9.23;6.80;;;9.20;99.90;;;;;;5043226;28;20197;-31
2023/01/30 05:53:55;;;;;;;9.87;5.77;;;9.30;99.90;;;;;;5044451;28;20212;-31
2023/01/30 05:56:25;;;;;;;10.23;6.23;;;9.30;99.90;;;;;;5043924;28;20710;-32
2023/01/30 05:58:54;;;;;;;9.33;5.70;;;9.40;99.90;;;;;;5032361;28;20217;-31
2023/01/30 06:01:27;;;;;;;10.47;6.37;;;9.40;99.90;;;;;;5030634;28;20546;-31
2023/01/30 06:03:56;;;;;;;9.97;6.17;;;9.40;99.90;;;;;;5040069;28;20734;-31
2023/01/30 06:06:26;;;;;;;7.60;5.83;;;9.40;99.90;;;;;;5042813;28;20661;-32
2023/01/30 06:08:55;;;;;;;12.07;6.90;;;9.40;99.90;;;;;;5032878;28;20197;-31
2023/01/30 06:11:27;;;;;;;9.83;5.83;;;9.40;99.90;;;;;;5012925;28;20243;-31
2023/01/30 06:13:57;;;;;;;9.23;6.37;;;9.40;99.90;;;;;;5048754;28;20295;-32
2023/01/30 06:16:27;;;;;;;9.63;5.93;;;9.40;99.90;;;;;;5043397;28;20215;-31
2023/01/30 06:18:56;;;;;;;12.07;5.73;;;9.50;99.90;;;;;;5033758;28;20208;-32
2023/01/30 06:21:26;;;;;;;8.80;5.37;;;9.50;99.90;;;;;;5037893;28;20580;-32
2023/01/30 06:23:53;;;;;;;8.67;5.93;;;9.50;99.90;;;;;;5028680;28;20224;-32
2023/01/30 06:26:23;;;;;;;8.73;5.80;;;9.50;99.90;;;;;;5026606;28;20211;-32
2023/01/30 06:28:53;;;;;;;9.17;5.53;;;9.50;99.90;;;;;;5036021;28;20205;-32
2023/01/30 06:31:21;;;;;;;11.93;5.70;;;9.50;99.90;;;;;;5025427;28;20737;-32
2023/01/30 06:33:50;;;;;;;11.70;5.53;;;9.50;99.90;;;;;;5027499;28;20208;-32
2023/01/30 06:36:22;;;;;;;9.13;5.73;;;9.50;99.90;;;;;;5032340;28;20295;-32
2023/01/30 06:38:52;;;;;;;8.30;5.00;;;9.50;99.90;;;;;;5044997;28;20220;-31
2023/01/30 06:41:20;;;;;;;7.80;5.70;;;9.50;99.90;;;;;;5047414;28;20668;-32
2023/01/30 06:43:47;;;;;;;13.27;6.00;;;9.50;99.90;;;;;;5046330;28;20266;-32
2023/01/30 06:46:16;;;;;;;8.07;5.60;;;9.60;99.90;;;;;;5045837;28;20228;-32
2023/01/30 06:48:48;;;;;;;8.00;5.53;;;9.60;99.90;;;;;;5047650;28;20218;-32
2023/01/30 06:51:21;;;;;;;8.17;6.10;;;9.60;99.90;;;;;;5023353;28;20302;-32
2023/01/30 06:53:53;;;;;;;7.53;6.03;;;9.60;99.90;;;;;;5030092;28;20208;-32
2023/01/30 06:56:25;;;;;;;10.20;5.07;;;9.60;99.90;;;;;;5034678;28;20208;-32
2023/01/30 06:58:54;;;;;;;10.80;6.07;;;9.60;99.90;;;;;;5034169;28;20205;-32
2023/01/30 07:01:22;;;;;;;10.17;5.53;;;9.60;99.90;;;;;;5042613;28;20278;-31
2023/01/30 07:03:49;;;;;;;9.23;5.57;;;9.60;99.90;;;;;;5041839;28;20224;-32
2023/01/30 07:06:19;;;;;;;6.57;4.80;;;9.60;99.90;;;;;;5037931;28;20282;-32
2023/01/30 07:08:46;;;;;;;9.80;4.97;;;9.60;99.90;;;;;;5048310;28;20304;-32
2023/01/30 07:11:18;;;;;;;9.37;4.93;;;9.60;99.90;;;;;;5045028;28;20196;-32
2023/01/30 07:13:52;;;;;;;11.60;5.40;;;9.70;99.90;;;;;;5029926;28;20224;-31
2023/01/30 07:16:27;;;;;;;11.33;5.60;;;9.70;99.90;;;;;;5037769;28;20545;-31
2023/01/30 07:18:58;;;;;;;11.97;5.87;;;9.70;99.90;;;;;;5038411;28;20666;-32
2023/01/30 07:21:26;;;;;;;8.83;5.73;;;9.60;99.90;;;;;;5030971;28;20224;-31
2023/01/30 07:23:53;;;;;;;9.43;5.60;;;9.60;99.90;;;;;;5041479;28;20224;-32
2023/01/30 07:26:23;;;;;;;10.20;5.60;;;9.50;99.90;;;;;;5041688;28;20278;-32
2023/01/30 07:28:53;;;;;;;8.30;4.90;;;9.50;99.90;;;;;;5044402;28;20886;-31
2023/01/30 07:31:20;;;;;;;9.00;5.30;;;9.50;99.90;;;;;;5032315;28;20257;-32
2023/01/30 07:33:47;;;;;;;9.87;5.57;;;9.60;99.90;;;;;;5025686;28;20209;-32
2023/01/30 07:36:16;;;;;;;9.27;5.00;;;9.60;99.90;;;;;;5029872;28;20823;-32
2023/01/30 07:38:52;;;;;;;7.00;5.10;;;9.60;99.90;;;;;;5044066;28;20222;-31
2023/01/30 07:41:19;;;;;;;9.77;5.30;;;9.60;99.90;;;;;;5038598;28;20208;-32
2023/01/30 07:43:50;;;;;;;9.50;5.27;;;9.60;99.90;;;;;;5060255;28;20230;-32
2023/01/30 07:46:18;;;;;;;8.80;5.03;;;9.60;99.90;;;;;;5042391;28;20760;-31
2023/01/30 07:48:47;;;;;;;8.57;5.23;;;9.60;99.90;;;;;;5033098;28;20204;-31
2023/01/30 07:51:17;;;;;;;13.03;5.93;;;9.70;99.90;;;;;;5026959;28;20204;-31
2023/01/30 07:53:47;;;;;;;10.93;4.60;;;9.70;99.90;;;;;;5032299;28;20704;-32
2023/01/30 07:56:22;;;;;;;8.60;4.77;;;9.70;99.90;;;;;;5027704;28;20208;-32
2023/01/30 07:58:50;;;;;;;13.40;5.30;;;9.70;99.90;;;;;;5029656;28;20237;-32
2023/01/30 08:01:23;;;;;;;11.03;4.87;;;9.70;99.90;;;;;;5033375;28;20206;-32
2023/01/30 08:03:50;;;;;;;8.93;4.10;;;9.70;99.90;;;;;;5025175;28;20224;-32
2023/01/30 08:06:19;;;;;;;13.47;4.77;;;9.70;99.90;;;;;;5023106;28;20349;-32
2023/01/30 08:08:47;;;;;;;10.77;4.30;;;9.60;99.90;;;;;;5034469;28;20212;-32
2023/01/30 08:11:18;;;;;;;15.40;4.67;;;9.70;99.90;;;;;;5035755;28;20261;-31
2023/01/30 08:13:53;;;;;;;11.30;4.20;;;9.80;99.90;;;;;;5045406;28;20229;-32
2023/01/30 08:16:20;;;;;;;11.90;4.37;;;9.80;99.90;;;;;;5043344;28;20270;-32
2023/01/30 08:18:49;;;;;;;9.70;4.27;;;9.70;99.90;;;;;;5045263;28;20300;-32
2023/01/30 08:21:16;;;;;;;9.03;3.57;;;9.80;99.90;;;;;;5042470;28;20226;-32
2023/01/30 08:23:44;;;;;;;10.93;4.57;;;9.80;99.90;;;;;;5054732;28;20663;-31
2023/01/30 08:26:13;;;;;;;10.20;4.30;;;9.80;99.90;;;;;;5030673;28;20290;-32
2023/01/30 08:28:43;;;;;;;8.97;3.90;;;9.80;99.90;;;;;;5026446;28;20700;-32
2023/01/30 08:31:12;;;;;;;13.37;4.33;;;9.80;99.90;;;;;;5028158;28;20208;-32
2023/01/30 08:33:42;;;;;;;12.83;4.50;;;9.80;99.90;;;;;;5051107;28;20204;-32
2023/01/30 08:36:12;;;;;;;11.13;4.00;;;9.90;99.90;;;;;;5059722;28;20218;-32
2023/01/30 08:38:42;;;;;;;9.57;4.07;;;9.90;99.90;;;;;;5036613;28;20212;-31
2023/01/30 08:41:14;;;;;;;12.77;4.07;;;9.90;99.90;;;;;;5036560;28;20291;-31
2023/01/30 08:43:43;;;;;;;8.83;3.47;;;9.90;99.90;;;;;;5042309;28;20204;-32
2023/01/30 08:46:10;;;;;;;7.87;3.07;;;9.90;99.90;;;;;;5039580;28;20723;-31
2023/01/30 08:48:43;;;;;;;11.53;3.53;;;9.90;99.90;;;;;;5036124;28;20296;-32
2023/01/30 08:51:16;;;;;;;11.80;3.13;;;9.90;99.90;;;;;;5041488;28;20197;-32
2023/01/30 08:53:44;;;;;;;9.13;2.93;;;9.80;99.90;;;;;;5040809;28;20768;-32
2023/01/30 08:56:16;;;;;;;14.93;3.63;;;9.80;99.90;;;;;;5036195;28;20680;-32
2023/01/30 08:58:45;;;;;;;10.57;3.07;;;9.80;99.90;;;;;;5043308;28;20638;-31
2023/01/30 09:01:15;;;;;;;15.57;3.47;;;9.80;99.90;;;;;;5037446;28;20577;-32
2023/01/30 09:03:45;;;;;;;16.20;3.47;;;9.70;99.90;;;;;;5033470;28;20209;-32
2023/01/30 09:06:12;;;;;;;11.63;3.33;;;9.60;99.90;;;;;;5038267;28;20240;-32
2023/01/30 09:08:42;;;;;;;12.77;2.80;;;9.60;99.90;;;;;;5044581;28;20204;-32
2023/01/30 09:11:10;;;;;;;12.47;3.20;;;9.60;99.90;;;;;;5043535;28;20242;-32
2023/01/30 09:13:42;;;;;;;15.07;3.43;;;9.60;99.90;;;;;;5055757;28;20204;-32
2023/01/30 09:16:12;;;;;;;15.80;2.70;;;9.50;99.90;;;;;;5045901;28;20192;-32
2023/01/30 09:18:41;;;;;;;13.57;2.70;;;9.50;99.90;;;;;;5035060;28;20622;-31
2023/01/30 09:21:12;;;;;;;13.77;3.40;;;9.50;99.90;;;;;;5023942;28;20209;-31
2023/01/30 09:23:39;;;;;;;13.80;3.20;;;9.50;99.90;;;;;;5027309;28;20625;-32
2023/01/30 09:26:10;;;;;;;14.33;3.33;;;9.50;99.90;;;;;;5027095;28;20217;-32
2023/01/30 09:28:37;;;;;;;11.77;3.00;;;9.50;99.90;;;;;;5037593;28;20583;-32
2023/01/30 09:31:04;;;;;;;15.83;3.30;;;9.50;99.90;;;;;;5030838;28;20204;-32
2023/01/30 09:33:32;;;;;;;14.40;2.77;;;9.50;99.90;;;;;;5035361;28;20212;-32
2023/01/30 09:36:04;;;;;;;12.07;2.77;;;9.50;99.90;;;;;;5032138;28;20584;-31
2023/01/30 09:38:31;;;;;;;10.10;2.70;;;9.50;99.90;;;;;;5043763;28;20212;-31
2023/01/30 09:40:58;;;;;;;11.30;3.00;;;9.50;99.90;;;;;;5043348;28;20207;-32
2023/01/30 09:43:28;;;;;;;11.30;2.77;;;9.40;99.90;;;;;;5042278;28;20354;-32
2023/01/30 09:46:37;;;;;;;15.27;2.40;;;9.40;99.90;;;;;;5039987;28;20815;-31
2023/01/30 09:49:23;;;;;;;13.47;3.10;;;9.40;99.90;;;;;;5040313;28;20295;-32
2023/01/30 09:52:10;;;;;;;15.47;2.97;;;9.40;99.90;;;;;;5038413;28;20341;-32
2023/01/30 09:54:44;;;;;;;13.40;2.87;;;9.40;99.90;;;;;;5046949;28;20236;-32
2023/01/30 09:57:17;;;;;;;12.57;2.70;;;9.40;99.90;;;;;;5037046;28;20216;-32
2023/01/30 09:59:59;;;;;;;18.20;2.67;;;9.30;99.90;;;;;;5035920;28;20215;-31
2023/01/30 10:02:50;;;;;;;9.43;2.23;;;9.30;99.90;;;;;;5045907;28;20589;-32
2023/01/30 10:05:18;;;;;;;13.03;3.07;;;9.30;99.90;;;;;;5030506;28;20857;-32
2023/01/30 10:08:01;;;;;;;15.70;3.17;;;9.30;99.90;;;;;;5029806;28;20223;-32
2023/01/30 10:10:48;;;;;;;13.67;3.00;;;9.30;99.90;;;;;;5045747;28;20279;-31
2023/01/30 10:13:42;;;;;;;14.97;2.97;;;9.30;99.90;;;;;;5047009;28;20228;-32
2023/01/30 10:16:43;;;;;;;14.60;3.13;;;9.40;99.90;;;;;;5039503;28;20205;-32
2023/01/30 10:19:58;;;;;;;16.90;2.93;;;9.30;99.90;;;;;;5033171;28;20671;-32
2023/01/30 10:22:49;;;;;;;13.40;3.23;;;9.40;99.90;;;;;;5023168;28;20299;-31
2023/01/30 10:25:33;;;;;;;13.23;2.70;;;9.50;99.90;;;;;;5035547;28;20216;-32
2023/01/30 10:28:23;;;;;;;14.50;2.47;;;9.40;99.90;;;;;;5041890;28;20200;-32
2023/01/30 10:31:00;;;;;;;12.40;2.80;;;9.40;99.90;;;;;;5038606;28;20531;-32
2023/01/30 10:33:39;;;;;;;12.00;2.70;;;9.50;99.90;;;;;;5046592;28;20946;-32
2023/01/30 10:36:11;;;;;;;18.57;2.97;;;9.50;99.90;;;;;;5046448;28;20252;-32
2023/01/30 10:38:42;;;;;;;16.87;2.90;;;9.50;99.90;;;;;;5038549;28;20289;-31
2023/01/30 10:41:17;;;;;;;12.80;2.90;;;9.50;99.90;;;;;;5046899;28;20208;-31
2023/01/30 10:44:10;;;;;;;14.63;2.97;;;9.50;99.90;;;;;;5040188;28;20690;-31
2023/01/30 10:47:05;;;;;;;11.63;2.60;;;9.50;99.90;;;;;;5028384;28;20243;-31
2023/01/30 10:49:55;;;;;;;12.07;2.63;;;9.60;99.90;;;;;;5044465;28;20210;-31
2023/01/30 10:52:44;;;;;;;15.60;2.50;;;9.60;99.90;;;;;;5039991;28;20718;-31
2023/01/30 10:55:29;;;;;;;13.87;2.63;;;9.60;99.90;;;;;;5033416;28;20261;-31
2023/01/30 10:58:37;;;;;;;10.30;2.70;;;9.60;99.90;;;;;;5049341;28;20192;-31
2023/01/30 11:01:36;;;;;;;14.70;3.00;;;9.70;99.90;;;;;;5038384;28;20659;-31
2023/01/30 11:04:27;;;;;;;15.37;3.40;;;9.70;99.90;;;;;;5046900;28;20216;-31
2023/01/30 11:06:58;;;;;;;17.17;2.80;;;9.80;99.90;;;;;;5043077;28;20275;-31
2023/01/30 11:09:45;;;;;;;11.37;2.80;;;9.90;99.90;;;;;;5044274;28;20200;-31
2023/01/30 11:12:17;;;;;;;18.53;3.47;;;9.90;99.90;;;;;;5027214;28;20628;-32
2023/01/30 11:14:53;;;;;;;14.67;3.93;;;10.00;99.90;;;;;;5045195;28;20589;-31
2023/01/30 11:17:27;;;;;;;14.30;3.23;;;10.00;99.90;;;;;;5045852;28;20199;-31
2023/01/30 11:19:59;;;;;;;15.93;3.10;;;10.00;99.90;;;;;;5044889;28;20219;-30
2023/01/30 11:22:33;;;;;;;9.60;2.90;;;10.00;99.90;;;;;;5040612;28;20228;-31
2023/01/30 11:25:03;;;;;;;15.67;2.90;;;10.00;99.90;;;;;;5036214;28;20242;-31
2023/01/30 11:27:34;;;;;;;11.87;2.40;;;9.90;99.90;;;;;;5045095;28;20288;-31
2023/01/30 11:30:09;;;;;;;13.87;3.10;;;10.00;99.90;;;;;;5039222;28;20223;-34
2023/01/30 11:32:37;;;;;;;17.10;3.17;;;10.00;99.90;;;;;;5040027;28;20255;-34
2023/01/30 11:35:07;;;;;;;16.10;2.87;;;10.00;99.90;;;;;;5037998;28;20217;-34
2023/01/30 11:37:37;;;;;;;14.03;2.87;;;10.10;99.90;;;;;;5034959;28;20277;-33
2023/01/30 11:40:16;;;;;;;15.70;3.17;;;10.10;99.90;;;;;;5044914;28;20259;-34
2023/01/30 11:42:50;;;;;;;19.27;3.20;;;10.10;99.90;;;;;;5052982;28;20634;-33
2023/01/30 11:45:18;;;;;;;13.10;2.30;;;10.00;99.90;;;;;;5038641;28;20228;-34
2023/01/30 11:47:56;;;;;;;12.47;2.77;;;10.00;99.90;;;;;;5042987;28;20209;-34
2023/01/30 11:50:38;;;;;;;14.80;3.00;;;10.00;99.90;;;;;;5046154;28;20310;-31
2023/01/30 11:53:36;;;;;;;15.27;3.17;;;10.10;99.90;;;;;;5032157;28;20295;-31
2023/01/30 11:56:14;;;;;;;16.30;3.53;;;10.00;99.90;;;;;;5026202;28;20204;-30
2023/01/30 11:58:48;;;;;;;15.50;2.80;;;10.10;99.90;;;;;;5038194;28;20200;-33
2023/01/30 12:01:16;;;;;;;15.10;2.93;;;10.10;99.90;;;;;;5027795;28;20208;-33
2023/01/30 12:03:54;;;;;;;12.90;2.97;;;10.10;99.90;;;;;;5043428;28;20220;-34
2023/01/30 12:06:33;;;;;;;16.27;2.70;;;10.10;99.90;;;;;;5044500;28;20318;-34
2023/01/30 12:09:07;;;;;;;12.83;2.80;;;10.10;99.90;;;;;;5043017;28;20666;-33
2023/01/30 12:11:41;;;;;;;13.37;2.80;;;10.00;99.90;;;;;;5036683;28;20192;-34
2023/01/30 12:14:10;;;;;;;15.10;3.07;;;10.10;99.90;;;;;;5028483;28;20216;-32
2023/01/30 12:17:02;;;;;;;15.53;3.03;;;10.20;99.90;;;;;;5043429;28;20301;-32
2023/01/30 12:19:41;;;;;;;16.93;3.00;;;10.20;99.90;;;;;;5046109;28;20227;-32
2023/01/30 12:22:30;;;;;;;14.43;2.73;;;10.20;99.90;;;;;;5036850;28;20754;-31
2023/01/30 12:24:59;;;;;;;10.20;2.40;;;10.20;99.90;;;;;;5028747;28;20221;-31
2023/01/30 12:27:50;;;;;;;17.63;2.97;;;10.20;99.90;;;;;;5025183;28;20209;-32
2023/01/30 12:30:43;;;;;;;17.53;3.03;;;10.20;99.90;;;;;;5032866;28;20737;-32
2023/01/30 12:33:15;;;;;;;13.77;2.90;;;10.20;99.90;;;;;;5034324;28;20598;-32
2023/01/30 12:36:05;;;;;;;16.33;3.43;;;10.20;99.90;;;;;;5035286;28;20273;-32
2023/01/30 12:39:09;;;;;;;17.40;3.33;;;10.10;99.90;;;;;;5038502;28;20647;-32
2023/01/30 12:41:45;;;;;;;16.73;3.43;;;10.20;99.90;;;;;;5023489;28;20213;-34
2023/01/30 12:44:23;;;;;;;16.10;2.70;;;10.10;99.90;;;;;;5028602;28;20197;-34
2023/01/30 12:47:14;;;;;;;13.37;2.87;;;10.10;99.90;;;;;;5035868;28;20285;-33
2023/01/30 12:49:57;;;;;;;14.17;2.63;;;10.10;99.90;;;;;;5022297;28;20209;-33
2023/01/30 12:52:45;;;;;;;13.90;2.90;;;10.10;99.90;;;;;;5034092;28;20535;-32
2023/01/30 12:55:26;;;;;;;16.57;3.17;;;10.10;99.90;;;;;;5031101;28;20643;-32
2023/01/30 12:58:35;;;;;;;16.90;2.70;;;10.20;99.90;;;;;;5032524;28;20220;-33
2023/01/30 13:01:07;;;;;;;14.37;2.90;;;10.20;99.90;;;;;;5031197;28;20223;-33
2023/01/30 13:03:43;;;;;;;17.47;2.93;;;10.20;99.90;;;;;;5031177;28;20200;-34
2023/01/30 13:06:49;;;;;;;11.90;2.90;;;10.20;99.90;;;;;;5034290;28;20590;-33
2023/01/30 13:09:27;;;;;;;16.93;3.00;;;10.20;99.90;;;;;;5039358;28;20224;-32
2023/01/30 13:12:14;;;;;;;13.03;2.90;;;10.20;99.90;;;;;;5029965;28;20200;-32
2023/01/30 13:15:01;;;;;;;17.90;2.80;;;10.20;99.90;;;;;;5041099;28;20219;-34
2023/01/30 13:17:47;;;;;;;12.47;2.70;;;10.20;99.90;;;;;;5038280;28;20291;-32
2023/01/30 13:20:22;;;;;;;18.90;3.13;;;10.20;99.90;;;;;;5041937;28;20215;-31
2023/01/30 13:23:07;;;;;;;15.10;2.87;;;10.20;99.90;;;;;;5044663;28;20210;-32
2023/01/30 13:25:41;;;;;;;15.30;2.80;;;10.30;99.90;;;;;;5042684;28;20235;-32
2023/01/30 13:28:24;;;;;;;14.17;3.07;;;10.30;99.90;;;;;;5028230;28;20224;-31